sensor_id;sensor_type;location;lat;lon;timestamp;P1;durP1;ratioP1;P2;durP2;ratioP2
37477;SDS011;23334;54.316;10.182;2022-08-21T00:00:06;6.40;;;4.90;;
37477;SDS011;23334;54.316;10.182;2022-08-21T00:02:35;13.47;;;5.53;;
37477;SDS011;23334;54.316;10.182;2022-08-21T00:05:01;8.53;;;4.87;;
37477;SDS011;23334;54.316;10.182;2022-08-21T00:07:28;8.13;;;4.10;;
37477;SDS011;23334;54.316;10.182;2022-08-21T00:09:53;11.93;;;5.00;;
37477;SDS011;23334;54.316;10.182;2022-08-21T00:12:19;6.03;;;3.77;;
37477;SDS011;23334;54.316;10.182;2022-08-21T00:14:46;10.60;;;4.50;;
37477;SDS011;23334;54.316;10.182;2022-08-21T00:17:11;6.57;;;4.50;;
37477;SDS011;23334;54.316;10.182;2022-08-21T00:19:37;14.33;;;4.60;;
37477;SDS011;23334;54.316;10.182;2022-08-21T00:22:02;12.50;;;4.60;;
37477;SDS011;23334;54.316;10.182;2022-08-21T00:24:28;7.17;;;4.93;;
37477;SDS011;23334;54.316;10.182;2022-08-21T00:26:54;9.47;;;4.83;;
37477;SDS011;23334;54.316;10.182;2022-08-21T00:29:19;15.47;;;5.47;;
37477;SDS011;23334;54.316;10.182;2022-08-21T00:31:45;12.20;;;4.13;;
37477;SDS011;23334;54.316;10.182;2022-08-21T00:34:11;6.93;;;4.60;;
37477;SDS011;23334;54.316;10.182;2022-08-21T00:36:37;8.97;;;3.93;;
37477;SDS011;23334;54.316;10.182;2022-08-21T00:39:05;9.03;;;3.93;;
37477;SDS011;23334;54.316;10.182;2022-08-21T00:41:31;8.30;;;4.23;;
37477;SDS011;23334;54.316;10.182;2022-08-21T00:43:58;9.67;;;4.60;;
37477;SDS011;23334;54.316;10.182;2022-08-21T00:46:24;6.67;;;4.17;;
37477;SDS011;23334;54.316;10.182;2022-08-21T00:48:49;5.30;;;3.80;;
37477;SDS011;23334;54.316;10.182;2022-08-21T00:51:17;8.43;;;3.90;;
37477;SDS011;23334;54.316;10.182;2022-08-21T00:53:48;4.33;;;4.03;;
37477;SDS011;23334;54.316;10.182;2022-08-21T00:56:17;10.40;;;4.43;;
37477;SDS011;23334;54.316;10.182;2022-08-21T00:58:44;8.13;;;4.17;;
37477;SDS011;23334;54.316;10.182;2022-08-21T01:01:10;9.33;;;4.10;;
37477;SDS011;23334;54.316;10.182;2022-08-21T01:03:36;6.17;;;4.70;;
37477;SDS011;23334;54.316;10.182;2022-08-21T01:06:02;7.73;;;4.30;;
37477;SDS011;23334;54.316;10.182;2022-08-21T01:08:29;5.20;;;4.50;;
37477;SDS011;23334;54.316;10.182;2022-08-21T01:10:55;4.30;;;3.80;;
37477;SDS011;23334;54.316;10.182;2022-08-21T01:13:22;9.43;;;3.40;;
37477;SDS011;23334;54.316;10.182;2022-08-21T01:15:49;10.60;;;3.90;;
37477;SDS011;23334;54.316;10.182;2022-08-21T01:18:17;12.20;;;4.20;;
37477;SDS011;23334;54.316;10.182;2022-08-21T01:23:42;8.93;;;4.00;;
37477;SDS011;23334;54.316;10.182;2022-08-21T01:26:10;15.63;;;4.47;;
37477;SDS011;23334;54.316;10.182;2022-08-21T01:28:48;8.97;;;4.50;;
37477;SDS011;23334;54.316;10.182;2022-08-21T01:31:19;4.83;;;4.10;;
37477;SDS011;23334;54.316;10.182;2022-08-21T01:33:48;10.60;;;5.13;;
37477;SDS011;23334;54.316;10.182;2022-08-21T01:36:13;9.80;;;4.70;;
37477;SDS011;23334;54.316;10.182;2022-08-21T01:38:39;10.23;;;4.90;;
37477;SDS011;23334;54.316;10.182;2022-08-21T01:41:05;6.10;;;5.40;;
37477;SDS011;23334;54.316;10.182;2022-08-21T01:43:30;7.33;;;4.10;;
37477;SDS011;23334;54.316;10.182;2022-08-21T01:45:56;12.97;;;4.77;;
37477;SDS011;23334;54.316;10.182;2022-08-21T01:48:21;13.87;;;5.43;;
37477;SDS011;23334;54.316;10.182;2022-08-21T01:50:46;6.60;;;4.97;;
37477;SDS011;23334;54.316;10.182;2022-08-21T01:53:12;7.27;;;4.63;;
37477;SDS011;23334;54.316;10.182;2022-08-21T01:55:40;8.70;;;5.03;;
37477;SDS011;23334;54.316;10.182;2022-08-21T01:58:06;21.20;;;4.70;;
37477;SDS011;23334;54.316;10.182;2022-08-21T02:00:32;10.23;;;5.37;;
37477;SDS011;23334;54.316;10.182;2022-08-21T02:02:57;5.17;;;4.70;;
37477;SDS011;23334;54.316;10.182;2022-08-21T02:05:23;9.43;;;4.67;;
37477;SDS011;23334;54.316;10.182;2022-08-21T02:07:49;12.93;;;4.50;;
37477;SDS011;23334;54.316;10.182;2022-08-21T02:10:20;8.07;;;4.33;;
37477;SDS011;23334;54.316;10.182;2022-08-21T02:12:48;8.17;;;4.40;;
37477;SDS011;23334;54.316;10.182;2022-08-21T02:15:14;9.90;;;4.10;;
37477;SDS011;23334;54.316;10.182;2022-08-21T02:17:45;13.30;;;5.17;;
37477;SDS011;23334;54.316;10.182;2022-08-21T02:20:15;8.20;;;4.57;;
37477;SDS011;23334;54.316;10.182;2022-08-21T02:22:42;12.30;;;5.23;;
37477;SDS011;23334;54.316;10.182;2022-08-21T02:25:08;6.10;;;4.67;;
37477;SDS011;23334;54.316;10.182;2022-08-21T02:27:42;10.10;;;4.80;;
37477;SDS011;23334;54.316;10.182;2022-08-21T02:30:11;7.03;;;4.53;;
37477;SDS011;23334;54.316;10.182;2022-08-21T02:32:45;7.33;;;4.30;;
37477;SDS011;23334;54.316;10.182;2022-08-21T02:35:11;11.70;;;4.23;;
37477;SDS011;23334;54.316;10.182;2022-08-21T02:37:44;5.47;;;4.00;;
37477;SDS011;23334;54.316;10.182;2022-08-21T02:40:17;13.53;;;4.93;;
37477;SDS011;23334;54.316;10.182;2022-08-21T02:42:44;7.23;;;4.20;;
37477;SDS011;23334;54.316;10.182;2022-08-21T02:45:10;8.97;;;4.93;;
37477;SDS011;23334;54.316;10.182;2022-08-21T02:47:37;4.73;;;4.27;;
37477;SDS011;23334;54.316;10.182;2022-08-21T02:50:03;10.73;;;4.50;;
37477;SDS011;23334;54.316;10.182;2022-08-21T02:52:30;8.23;;;4.57;;
37477;SDS011;23334;54.316;10.182;2022-08-21T02:54:55;5.60;;;4.30;;
37477;SDS011;23334;54.316;10.182;2022-08-21T02:57:21;5.20;;;4.67;;
37477;SDS011;23334;54.316;10.182;2022-08-21T02:59:47;4.80;;;4.30;;
37477;SDS011;23334;54.316;10.182;2022-08-21T03:02:12;6.73;;;4.63;;
37477;SDS011;23334;54.316;10.182;2022-08-21T03:04:38;6.60;;;4.80;;
37477;SDS011;23334;54.316;10.182;2022-08-21T03:07:03;5.40;;;4.90;;
37477;SDS011;23334;54.316;10.182;2022-08-21T03:09:29;11.90;;;5.00;;
37477;SDS011;23334;54.316;10.182;2022-08-21T03:11:54;5.33;;;4.90;;
37477;SDS011;23334;54.316;10.182;2022-08-21T03:14:20;7.57;;;4.80;;
37477;SDS011;23334;54.316;10.182;2022-08-21T03:16:45;6.47;;;4.70;;
37477;SDS011;23334;54.316;10.182;2022-08-21T03:19:11;5.20;;;4.70;;
37477;SDS011;23334;54.316;10.182;2022-08-21T03:21:37;9.17;;;4.73;;
37477;SDS011;23334;54.316;10.182;2022-08-21T03:24:02;6.40;;;4.60;;
37477;SDS011;23334;54.316;10.182;2022-08-21T03:26:29;8.57;;;4.70;;
37477;SDS011;23334;54.316;10.182;2022-08-21T03:28:55;8.33;;;5.07;;
37477;SDS011;23334;54.316;10.182;2022-08-21T03:31:23;4.87;;;4.47;;
37477;SDS011;23334;54.316;10.182;2022-08-21T03:33:48;6.03;;;4.57;;
37477;SDS011;23334;54.316;10.182;2022-08-21T03:36:14;8.03;;;4.77;;
37477;SDS011;23334;54.316;10.182;2022-08-21T03:38:40;12.00;;;4.70;;
37477;SDS011;23334;54.316;10.182;2022-08-21T03:41:06;7.73;;;4.97;;
37477;SDS011;23334;54.316;10.182;2022-08-21T03:43:32;5.33;;;4.20;;
37477;SDS011;23334;54.316;10.182;2022-08-21T03:46:00;5.50;;;4.17;;
37477;SDS011;23334;54.316;10.182;2022-08-21T03:48:28;6.60;;;4.27;;
37477;SDS011;23334;54.316;10.182;2022-08-21T03:50:54;5.63;;;4.60;;
37477;SDS011;23334;54.316;10.182;2022-08-21T03:53:21;14.03;;;4.60;;
37477;SDS011;23334;54.316;10.182;2022-08-21T03:55:50;7.50;;;3.83;;
37477;SDS011;23334;54.316;10.182;2022-08-21T03:58:18;5.70;;;4.03;;
37477;SDS011;23334;54.316;10.182;2022-08-21T04:00:47;4.97;;;4.53;;
37477;SDS011;23334;54.316;10.182;2022-08-21T04:03:15;10.70;;;4.83;;
37477;SDS011;23334;54.316;10.182;2022-08-21T04:05:42;8.37;;;4.63;;
37477;SDS011;23334;54.316;10.182;2022-08-21T04:08:10;7.00;;;4.70;;
37477;SDS011;23334;54.316;10.182;2022-08-21T04:10:37;7.40;;;4.57;;
37477;SDS011;23334;54.316;10.182;2022-08-21T04:13:05;8.47;;;4.37;;
37477;SDS011;23334;54.316;10.182;2022-08-21T04:15:31;8.53;;;4.53;;
37477;SDS011;23334;54.316;10.182;2022-08-21T04:17:57;6.20;;;4.60;;
37477;SDS011;23334;54.316;10.182;2022-08-21T04:20:23;4.90;;;4.47;;
37477;SDS011;23334;54.316;10.182;2022-08-21T04:22:50;4.50;;;4.10;;
37477;SDS011;23334;54.316;10.182;2022-08-21T04:25:17;5.10;;;4.63;;
37477;SDS011;23334;54.316;10.182;2022-08-21T04:27:44;4.60;;;4.20;;
37477;SDS011;23334;54.316;10.182;2022-08-21T04:30:11;9.40;;;4.80;;
37477;SDS011;23334;54.316;10.182;2022-08-21T04:32:41;7.47;;;4.40;;
37477;SDS011;23334;54.316;10.182;2022-08-21T04:35:11;5.47;;;4.47;;
37477;SDS011;23334;54.316;10.182;2022-08-21T04:37:37;4.90;;;4.13;;
37477;SDS011;23334;54.316;10.182;2022-08-21T04:40:04;11.40;;;4.57;;
37477;SDS011;23334;54.316;10.182;2022-08-21T04:42:31;7.10;;;4.20;;
37477;SDS011;23334;54.316;10.182;2022-08-21T04:44:57;9.70;;;4.37;;
37477;SDS011;23334;54.316;10.182;2022-08-21T04:47:23;4.27;;;3.40;;
37477;SDS011;23334;54.316;10.182;2022-08-21T04:49:49;4.77;;;4.37;;
37477;SDS011;23334;54.316;10.182;2022-08-21T04:52:16;6.13;;;3.97;;
37477;SDS011;23334;54.316;10.182;2022-08-21T04:54:46;5.23;;;4.10;;
37477;SDS011;23334;54.316;10.182;2022-08-21T04:57:13;5.40;;;4.17;;
37477;SDS011;23334;54.316;10.182;2022-08-21T04:59:43;6.33;;;4.23;;
37477;SDS011;23334;54.316;10.182;2022-08-21T05:02:14;4.37;;;4.07;;
37477;SDS011;23334;54.316;10.182;2022-08-21T05:04:42;8.37;;;4.40;;
37477;SDS011;23334;54.316;10.182;2022-08-21T05:07:13;7.00;;;4.17;;
37477;SDS011;23334;54.316;10.182;2022-08-21T05:09:42;3.80;;;3.60;;
37477;SDS011;23334;54.316;10.182;2022-08-21T05:12:08;4.47;;;4.07;;
37477;SDS011;23334;54.316;10.182;2022-08-21T05:14:34;5.60;;;4.50;;
37477;SDS011;23334;54.316;10.182;2022-08-21T05:17:01;5.70;;;4.20;;
37477;SDS011;23334;54.316;10.182;2022-08-21T05:19:27;6.03;;;5.20;;
37477;SDS011;23334;54.316;10.182;2022-08-21T05:21:52;9.67;;;5.20;;
37477;SDS011;23334;54.316;10.182;2022-08-21T05:24:19;6.77;;;5.00;;
37477;SDS011;23334;54.316;10.182;2022-08-21T05:26:45;7.77;;;5.13;;
37477;SDS011;23334;54.316;10.182;2022-08-21T05:29:11;10.37;;;4.90;;
37477;SDS011;23334;54.316;10.182;2022-08-21T05:31:38;5.40;;;4.47;;
37477;SDS011;23334;54.316;10.182;2022-08-21T05:34:05;10.13;;;4.60;;
37477;SDS011;23334;54.316;10.182;2022-08-21T05:36:30;6.33;;;4.63;;
37477;SDS011;23334;54.316;10.182;2022-08-21T05:38:56;9.43;;;4.50;;
37477;SDS011;23334;54.316;10.182;2022-08-21T05:41:22;12.27;;;5.40;;
37477;SDS011;23334;54.316;10.182;2022-08-21T05:43:48;8.60;;;4.33;;
37477;SDS011;23334;54.316;10.182;2022-08-21T05:46:13;11.87;;;4.20;;
37477;SDS011;23334;54.316;10.182;2022-08-21T05:48:40;10.77;;;4.53;;
37477;SDS011;23334;54.316;10.182;2022-08-21T05:51:09;7.63;;;3.73;;
37477;SDS011;23334;54.316;10.182;2022-08-21T05:53:37;8.57;;;3.77;;
37477;SDS011;23334;54.316;10.182;2022-08-21T05:56:05;4.07;;;3.33;;
37477;SDS011;23334;54.316;10.182;2022-08-21T05:58:31;3.43;;;2.53;;
37477;SDS011;23334;54.316;10.182;2022-08-21T06:00:57;4.00;;;2.43;;
37477;SDS011;23334;54.316;10.182;2022-08-21T06:03:25;6.60;;;2.13;;
37477;SDS011;23334;54.316;10.182;2022-08-21T06:05:53;2.17;;;1.93;;
37477;SDS011;23334;54.316;10.182;2022-08-21T06:08:19;4.10;;;1.83;;
37477;SDS011;23334;54.316;10.182;2022-08-21T06:10:48;4.13;;;1.90;;
37477;SDS011;23334;54.316;10.182;2022-08-21T06:13:15;3.90;;;2.50;;
37477;SDS011;23334;54.316;10.182;2022-08-21T06:15:41;4.60;;;1.93;;
37477;SDS011;23334;54.316;10.182;2022-08-21T06:18:07;4.63;;;2.13;;
37477;SDS011;23334;54.316;10.182;2022-08-21T06:20:34;2.60;;;2.10;;
37477;SDS011;23334;54.316;10.182;2022-08-21T06:23:01;6.73;;;2.27;;
37477;SDS011;23334;54.316;10.182;2022-08-21T06:25:27;3.50;;;1.67;;
37477;SDS011;23334;54.316;10.182;2022-08-21T06:27:53;7.70;;;2.03;;
37477;SDS011;23334;54.316;10.182;2022-08-21T06:30:25;5.03;;;1.83;;
37477;SDS011;23334;54.316;10.182;2022-08-21T06:32:50;3.00;;;1.70;;
37477;SDS011;23334;54.316;10.182;2022-08-21T06:35:16;2.77;;;1.87;;
37477;SDS011;23334;54.316;10.182;2022-08-21T06:37:41;2.07;;;1.30;;
37477;SDS011;23334;54.316;10.182;2022-08-21T06:40:07;5.37;;;1.90;;
37477;SDS011;23334;54.316;10.182;2022-08-21T06:42:33;2.93;;;1.50;;
37477;SDS011;23334;54.316;10.182;2022-08-21T06:45:00;2.90;;;1.40;;
37477;SDS011;23334;54.316;10.182;2022-08-21T06:47:25;5.57;;;1.70;;
37477;SDS011;23334;54.316;10.182;2022-08-21T06:49:51;2.10;;;1.30;;
37477;SDS011;23334;54.316;10.182;2022-08-21T06:52:16;7.20;;;1.70;;
37477;SDS011;23334;54.316;10.182;2022-08-21T06:54:42;2.90;;;1.40;;
37477;SDS011;23334;54.316;10.182;2022-08-21T06:57:07;5.07;;;1.63;;
37477;SDS011;23334;54.316;10.182;2022-08-21T06:59:33;3.00;;;1.33;;
37477;SDS011;23334;54.316;10.182;2022-08-21T07:01:59;2.97;;;1.10;;
37477;SDS011;23334;54.316;10.182;2022-08-21T07:04:24;5.70;;;1.60;;
37477;SDS011;23334;54.316;10.182;2022-08-21T07:06:50;3.67;;;1.10;;
37477;SDS011;23334;54.316;10.182;2022-08-21T07:09:17;6.57;;;1.50;;
37477;SDS011;23334;54.316;10.182;2022-08-21T07:11:43;3.83;;;1.60;;
37477;SDS011;23334;54.316;10.182;2022-08-21T07:14:13;2.90;;;1.70;;
37477;SDS011;23334;54.316;10.182;2022-08-21T07:16:38;3.50;;;1.40;;
37477;SDS011;23334;54.316;10.182;2022-08-21T07:19:04;2.30;;;0.73;;
37477;SDS011;23334;54.316;10.182;2022-08-21T10:46:47;3.40;;;1.40;;
37477;SDS011;23334;54.316;10.182;2022-08-21T10:49:37;7.77;;;2.30;;
37477;SDS011;23334;54.316;10.182;2022-08-21T10:52:20;1.80;;;1.60;;
37477;SDS011;23334;54.316;10.182;2022-08-21T10:55:06;4.13;;;1.77;;
37477;SDS011;23334;54.316;10.182;2022-08-21T10:57:37;3.60;;;1.73;;
37477;SDS011;23334;54.316;10.182;2022-08-21T11:00:13;3.27;;;2.00;;
37477;SDS011;23334;54.316;10.182;2022-08-21T11:02:47;2.57;;;1.80;;
37477;SDS011;23334;54.316;10.182;2022-08-21T11:05:29;5.50;;;1.70;;
37477;SDS011;23334;54.316;10.182;2022-08-21T11:08:04;4.13;;;1.73;;
37477;SDS011;23334;54.316;10.182;2022-08-21T11:13:17;4.90;;;2.00;;
37477;SDS011;23334;54.316;10.182;2022-08-21T11:15:56;3.57;;;1.33;;
37477;SDS011;23334;54.316;10.182;2022-08-21T11:18:34;5.93;;;1.87;;
37477;SDS011;23334;54.316;10.182;2022-08-21T11:21:25;2.33;;;1.60;;
37477;SDS011;23334;54.316;10.182;2022-08-21T11:26:52;3.53;;;1.87;;
37477;SDS011;23334;54.316;10.182;2022-08-21T11:29:32;6.17;;;2.00;;
37477;SDS011;23334;54.316;10.182;2022-08-21T11:32:20;6.07;;;3.30;;
37477;SDS011;23334;54.316;10.182;2022-08-21T11:43:22;1.63;;;1.27;;
37477;SDS011;23334;54.316;10.182;2022-08-21T11:46:13;1.70;;;1.60;;
37477;SDS011;23334;54.316;10.182;2022-08-21T11:49:08;1.60;;;1.50;;
37477;SDS011;23334;54.316;10.182;2022-08-21T11:51:50;1.83;;;1.20;;
37477;SDS011;23334;54.316;10.182;2022-08-21T11:57:05;1.20;;;1.07;;
37477;SDS011;23334;54.316;10.182;2022-08-21T11:59:40;1.37;;;1.07;;
37477;SDS011;23334;54.316;10.182;2022-08-21T12:02:16;2.03;;;1.30;;
37477;SDS011;23334;54.316;10.182;2022-08-21T12:04:53;2.07;;;1.30;;
37477;SDS011;23334;54.316;10.182;2022-08-21T12:07:30;2.50;;;1.03;;
37477;SDS011;23334;54.316;10.182;2022-08-21T12:09:59;1.20;;;0.90;;
37477;SDS011;23334;54.316;10.182;2022-08-21T12:12:29;1.33;;;1.10;;
37477;SDS011;23334;54.316;10.182;2022-08-21T12:15:30;1.13;;;0.97;;
37477;SDS011;23334;54.316;10.182;2022-08-21T12:18:01;1.23;;;1.00;;
37477;SDS011;23334;54.316;10.182;2022-08-21T12:25:40;3.03;;;1.03;;
37477;SDS011;23334;54.316;10.182;2022-08-21T12:28:09;1.20;;;1.00;;
37477;SDS011;23334;54.316;10.182;2022-08-21T12:30:42;1.50;;;0.87;;
37477;SDS011;23334;54.316;10.182;2022-08-21T12:36:03;1.17;;;0.90;;
37477;SDS011;23334;54.316;10.182;2022-08-21T12:38:43;1.00;;;0.60;;
37477;SDS011;23334;54.316;10.182;2022-08-21T12:41:26;2.40;;;1.10;;
37477;SDS011;23334;54.316;10.182;2022-08-21T12:43:59;1.87;;;0.80;;
37477;SDS011;23334;54.316;10.182;2022-08-21T12:46:50;0.80;;;0.60;;
37477;SDS011;23334;54.316;10.182;2022-08-21T12:49:26;1.73;;;0.80;;
37477;SDS011;23334;54.316;10.182;2022-08-21T12:52:11;2.40;;;0.90;;
37477;SDS011;23334;54.316;10.182;2022-08-21T12:54:44;1.10;;;0.80;;
37477;SDS011;23334;54.316;10.182;2022-08-21T12:57:17;4.80;;;0.90;;
37477;SDS011;23334;54.316;10.182;2022-08-21T13:00:01;3.50;;;0.70;;
37477;SDS011;23334;54.316;10.182;2022-08-21T13:02:33;1.00;;;0.80;;
37477;SDS011;23334;54.316;10.182;2022-08-21T13:05:05;1.27;;;0.60;;
37477;SDS011;23334;54.316;10.182;2022-08-21T13:07:34;1.07;;;0.97;;
37477;SDS011;23334;54.316;10.182;2022-08-21T13:10:14;1.83;;;0.73;;
37477;SDS011;23334;54.316;10.182;2022-08-21T13:12:45;2.40;;;0.70;;
37477;SDS011;23334;54.316;10.182;2022-08-21T13:15:12;1.30;;;0.77;;
37477;SDS011;23334;54.316;10.182;2022-08-21T13:17:39;1.17;;;1.07;;
37477;SDS011;23334;54.316;10.182;2022-08-21T13:20:22;2.30;;;0.80;;
37477;SDS011;23334;54.316;10.182;2022-08-21T13:22:50;1.50;;;0.80;;
37477;SDS011;23334;54.316;10.182;2022-08-21T13:25:18;1.07;;;0.70;;
37477;SDS011;23334;54.316;10.182;2022-08-21T13:27:55;1.07;;;0.77;;
37477;SDS011;23334;54.316;10.182;2022-08-21T13:30:28;1.23;;;0.60;;
37477;SDS011;23334;54.316;10.182;2022-08-21T13:32:56;1.83;;;0.70;;
37477;SDS011;23334;54.316;10.182;2022-08-21T13:35:30;2.70;;;1.30;;
37477;SDS011;23334;54.316;10.182;2022-08-21T13:37:56;1.03;;;0.80;;
37477;SDS011;23334;54.316;10.182;2022-08-21T13:40:29;1.37;;;0.80;;
37477;SDS011;23334;54.316;10.182;2022-08-21T13:42:57;1.00;;;0.90;;
37477;SDS011;23334;54.316;10.182;2022-08-21T13:45:26;1.37;;;0.70;;
37477;SDS011;23334;54.316;10.182;2022-08-21T13:47:56;3.23;;;0.70;;
37477;SDS011;23334;54.316;10.182;2022-08-21T13:50:24;2.30;;;1.00;;
37477;SDS011;23334;54.316;10.182;2022-08-21T13:52:55;1.97;;;1.10;;
37477;SDS011;23334;54.316;10.182;2022-08-21T13:55:22;1.17;;;0.70;;
37477;SDS011;23334;54.316;10.182;2022-08-21T13:57:58;0.80;;;0.60;;
37477;SDS011;23334;54.316;10.182;2022-08-21T14:00:26;1.87;;;0.60;;
37477;SDS011;23334;54.316;10.182;2022-08-21T14:02:53;1.00;;;0.80;;
37477;SDS011;23334;54.316;10.182;2022-08-21T14:05:29;4.60;;;1.00;;
37477;SDS011;23334;54.316;10.182;2022-08-21T14:08:10;1.63;;;0.90;;
37477;SDS011;23334;54.316;10.182;2022-08-21T14:10:50;1.63;;;0.83;;
37477;SDS011;23334;54.316;10.182;2022-08-21T14:16:13;2.00;;;0.90;;
37477;SDS011;23334;54.316;10.182;2022-08-21T14:18:46;1.10;;;0.80;;
37477;SDS011;23334;54.316;10.182;2022-08-21T14:21:49;2.30;;;1.00;;
37477;SDS011;23334;54.316;10.182;2022-08-21T14:24:26;2.53;;;0.73;;
37477;SDS011;23334;54.316;10.182;2022-08-21T14:26:55;2.10;;;0.93;;
37477;SDS011;23334;54.316;10.182;2022-08-21T14:29:26;2.10;;;1.03;;
37477;SDS011;23334;54.316;10.182;2022-08-21T14:31:54;1.33;;;0.77;;
37477;SDS011;23334;54.316;10.182;2022-08-21T14:34:22;1.50;;;0.90;;
37477;SDS011;23334;54.316;10.182;2022-08-21T14:36:50;4.50;;;0.80;;
37477;SDS011;23334;54.316;10.182;2022-08-21T14:39:16;1.40;;;1.00;;
37477;SDS011;23334;54.316;10.182;2022-08-21T14:41:42;1.80;;;1.33;;
37477;SDS011;23334;54.316;10.182;2022-08-21T14:44:10;1.83;;;0.90;;
37477;SDS011;23334;54.316;10.182;2022-08-21T14:46:36;1.00;;;0.90;;
37477;SDS011;23334;54.316;10.182;2022-08-21T14:49:03;3.20;;;1.03;;
37477;SDS011;23334;54.316;10.182;2022-08-21T14:51:28;3.57;;;1.30;;
37477;SDS011;23334;54.316;10.182;2022-08-21T14:53:54;1.53;;;1.10;;
37477;SDS011;23334;54.316;10.182;2022-08-21T14:56:20;1.60;;;1.23;;
37477;SDS011;23334;54.316;10.182;2022-08-21T14:58:47;2.33;;;1.43;;
37477;SDS011;23334;54.316;10.182;2022-08-21T15:01:15;1.37;;;1.17;;
37477;SDS011;23334;54.316;10.182;2022-08-21T15:03:43;2.90;;;1.23;;
37477;SDS011;23334;54.316;10.182;2022-08-21T15:06:10;2.80;;;1.00;;
37477;SDS011;23334;54.316;10.182;2022-08-21T15:08:35;3.83;;;1.43;;
37477;SDS011;23334;54.316;10.182;2022-08-21T15:11:02;2.27;;;1.00;;
37477;SDS011;23334;54.316;10.182;2022-08-21T15:13:29;2.93;;;1.07;;
37477;SDS011;23334;54.316;10.182;2022-08-21T15:15:55;4.17;;;1.43;;
37477;SDS011;23334;54.316;10.182;2022-08-21T15:18:22;5.87;;;1.20;;
37477;SDS011;23334;54.316;10.182;2022-08-21T15:20:49;2.90;;;1.43;;
37477;SDS011;23334;54.316;10.182;2022-08-21T15:23:15;4.67;;;1.37;;
37477;SDS011;23334;54.316;10.182;2022-08-21T15:25:42;3.00;;;1.30;;
37477;SDS011;23334;54.316;10.182;2022-08-21T15:28:09;3.83;;;1.40;;
37477;SDS011;23334;54.316;10.182;2022-08-21T15:30:35;1.43;;;1.07;;
37477;SDS011;23334;54.316;10.182;2022-08-21T15:33:02;1.40;;;0.90;;
37477;SDS011;23334;54.316;10.182;2022-08-21T15:35:28;4.00;;;0.93;;
37477;SDS011;23334;54.316;10.182;2022-08-21T15:37:53;1.60;;;1.00;;
37477;SDS011;23334;54.316;10.182;2022-08-21T15:40:19;2.50;;;1.10;;
37477;SDS011;23334;54.316;10.182;2022-08-21T15:42:44;2.70;;;1.37;;
37477;SDS011;23334;54.316;10.182;2022-08-21T15:45:11;6.90;;;1.00;;
37477;SDS011;23334;54.316;10.182;2022-08-21T15:47:38;4.53;;;1.20;;
37477;SDS011;23334;54.316;10.182;2022-08-21T15:50:07;2.30;;;1.50;;
37477;SDS011;23334;54.316;10.182;2022-08-21T15:52:34;4.10;;;1.30;;
37477;SDS011;23334;54.316;10.182;2022-08-21T15:55:01;2.33;;;1.60;;
37477;SDS011;23334;54.316;10.182;2022-08-21T15:57:26;6.10;;;2.73;;
37477;SDS011;23334;54.316;10.182;2022-08-21T15:59:55;6.33;;;1.67;;
37477;SDS011;23334;54.316;10.182;2022-08-21T16:02:24;5.90;;;1.60;;
37477;SDS011;23334;54.316;10.182;2022-08-21T16:04:55;2.27;;;1.50;;
37477;SDS011;23334;54.316;10.182;2022-08-21T16:07:22;4.03;;;1.60;;
37477;SDS011;23334;54.316;10.182;2022-08-21T16:09:48;3.47;;;1.40;;
37477;SDS011;23334;54.316;10.182;2022-08-21T16:12:19;1.53;;;1.40;;
37477;SDS011;23334;54.316;10.182;2022-08-21T16:14:48;8.23;;;1.70;;
37477;SDS011;23334;54.316;10.182;2022-08-21T16:17:16;4.40;;;1.50;;
37477;SDS011;23334;54.316;10.182;2022-08-21T16:19:42;2.80;;;1.60;;
37477;SDS011;23334;54.316;10.182;2022-08-21T16:22:07;8.43;;;1.93;;
37477;SDS011;23334;54.316;10.182;2022-08-21T16:24:33;4.80;;;1.47;;
37477;SDS011;23334;54.316;10.182;2022-08-21T16:27:02;2.83;;;1.50;;
37477;SDS011;23334;54.316;10.182;2022-08-21T16:29:35;4.63;;;2.30;;
37477;SDS011;23334;54.316;10.182;2022-08-21T16:32:01;4.83;;;1.63;;
37477;SDS011;23334;54.316;10.182;2022-08-21T16:34:27;4.80;;;1.90;;
37477;SDS011;23334;54.316;10.182;2022-08-21T16:36:53;2.20;;;1.50;;
37477;SDS011;23334;54.316;10.182;2022-08-21T16:39:19;4.17;;;1.57;;
37477;SDS011;23334;54.316;10.182;2022-08-21T16:41:45;2.90;;;1.70;;
37477;SDS011;23334;54.316;10.182;2022-08-21T16:44:13;5.23;;;1.43;;
37477;SDS011;23334;54.316;10.182;2022-08-21T16:46:39;4.17;;;1.77;;
37477;SDS011;23334;54.316;10.182;2022-08-21T16:49:05;7.00;;;1.80;;
37477;SDS011;23334;54.316;10.182;2022-08-21T16:51:31;5.13;;;1.87;;
37477;SDS011;23334;54.316;10.182;2022-08-21T16:53:59;3.07;;;1.97;;
37477;SDS011;23334;54.316;10.182;2022-08-21T16:58:59;5.40;;;2.07;;
37477;SDS011;23334;54.316;10.182;2022-08-21T17:01:26;5.00;;;1.80;;
37477;SDS011;23334;54.316;10.182;2022-08-21T17:03:54;5.17;;;2.37;;
37477;SDS011;23334;54.316;10.182;2022-08-21T17:06:20;5.00;;;2.17;;
37477;SDS011;23334;54.316;10.182;2022-08-21T17:08:46;3.93;;;1.87;;
37477;SDS011;23334;54.316;10.182;2022-08-21T17:11:26;3.93;;;2.00;;
37477;SDS011;23334;54.316;10.182;2022-08-21T17:13:56;2.50;;;1.80;;
37477;SDS011;23334;54.316;10.182;2022-08-21T17:16:23;10.20;;;2.07;;
37477;SDS011;23334;54.316;10.182;2022-08-21T17:18:49;7.00;;;2.67;;
37477;SDS011;23334;54.316;10.182;2022-08-21T17:21:15;9.13;;;2.83;;
37477;SDS011;23334;54.316;10.182;2022-08-21T17:23:40;12.40;;;3.40;;
37477;SDS011;23334;54.316;10.182;2022-08-21T17:26:06;6.03;;;2.30;;
37477;SDS011;23334;54.316;10.182;2022-08-21T17:28:33;5.33;;;2.43;;
37477;SDS011;23334;54.316;10.182;2022-08-21T17:31:00;6.00;;;2.23;;
37477;SDS011;23334;54.316;10.182;2022-08-21T17:33:26;2.90;;;2.27;;
37477;SDS011;23334;54.316;10.182;2022-08-21T17:36:01;3.87;;;1.80;;
37477;SDS011;23334;54.316;10.182;2022-08-21T17:38:27;10.63;;;2.37;;
37477;SDS011;23334;54.316;10.182;2022-08-21T17:40:53;10.00;;;2.40;;
37477;SDS011;23334;54.316;10.182;2022-08-21T17:43:19;2.60;;;1.80;;
37477;SDS011;23334;54.316;10.182;2022-08-21T17:45:44;10.63;;;2.20;;
37477;SDS011;23334;54.316;10.182;2022-08-21T17:48:10;5.33;;;1.90;;
37477;SDS011;23334;54.316;10.182;2022-08-21T17:50:36;5.23;;;2.30;;
37477;SDS011;23334;54.316;10.182;2022-08-21T17:53:01;5.60;;;2.30;;
37477;SDS011;23334;54.316;10.182;2022-08-21T17:55:27;4.47;;;2.00;;
37477;SDS011;23334;54.316;10.182;2022-08-21T17:57:53;8.63;;;2.13;;
37477;SDS011;23334;54.316;10.182;2022-08-21T18:00:20;4.03;;;1.70;;
37477;SDS011;23334;54.316;10.182;2022-08-21T18:02:50;7.33;;;2.63;;
37477;SDS011;23334;54.316;10.182;2022-08-21T18:05:43;9.13;;;2.40;;
37477;SDS011;23334;54.316;10.182;2022-08-21T18:08:11;7.90;;;2.40;;
37477;SDS011;23334;54.316;10.182;2022-08-21T18:10:38;6.90;;;1.97;;
37477;SDS011;23334;54.316;10.182;2022-08-21T18:13:05;3.50;;;1.70;;
37477;SDS011;23334;54.316;10.182;2022-08-21T18:15:33;10.37;;;2.23;;
37477;SDS011;23334;54.316;10.182;2022-08-21T18:17:59;7.77;;;2.90;;
37477;SDS011;23334;54.316;10.182;2022-08-21T18:20:25;5.13;;;1.97;;
37477;SDS011;23334;54.316;10.182;2022-08-21T18:22:51;3.77;;;1.80;;
37477;SDS011;23334;54.316;10.182;2022-08-21T18:25:17;7.23;;;2.53;;
37477;SDS011;23334;54.316;10.182;2022-08-21T18:27:43;7.50;;;2.17;;
37477;SDS011;23334;54.316;10.182;2022-08-21T18:30:11;7.67;;;2.20;;
37477;SDS011;23334;54.316;10.182;2022-08-21T18:32:40;10.13;;;2.40;;
37477;SDS011;23334;54.316;10.182;2022-08-21T18:35:06;6.43;;;2.30;;
37477;SDS011;23334;54.316;10.182;2022-08-21T18:37:32;7.73;;;2.60;;
37477;SDS011;23334;54.316;10.182;2022-08-21T18:39:58;5.63;;;3.63;;